Time;durP1;ratioP1;P1;durP2;ratioP2;P2;SDS_P1;SDS_P2;PMS_P1;PMS_P2;Temp;Humidity;BMP_temperature;BMP_pressure;BME280_temperature;BME280_humidity;BME280_pressure;Samples;Min_cycle;Max_cycle;Signal;HPM_P1;HPM_P2
2022/10/29 00:01:12;;;;;;;;;;;;;;;19.51;45.57;96294.03;6120887;19;1435;-80
2022/10/29 00:03:15;;;;;;;;;;;;;;;19.50;45.61;96303.03;6122326;19;1423;-80
2022/10/29 00:05:21;;;;;;;;;;;;;;;19.50;45.99;96298.53;6114364;19;1526;-79
2022/10/29 00:07:24;;;;;;;;;;;;;;;19.48;45.92;96297.06;6116465;19;1528;-81
2022/10/29 00:09:28;;;;;;;;;;;;;;;19.49;46.00;96293.38;6122053;19;1502;-79
2022/10/29 00:11:31;;;;;;;;;;;;;;;19.48;45.94;96289.06;6120077;19;1908;-80
2022/10/29 00:13:34;;;;;;;;;;;;;;;19.46;45.89;96291.88;6121870;19;1412;-81
2022/10/29 00:15:41;;;;;;;;;;;;;;;19.47;45.80;96290.91;6121485;19;1483;-79
2022/10/29 00:17:45;;;;;;;;;;;;;;;19.47;45.83;96282.91;6102487;19;1502;-79
2022/10/29 00:19:48;;;;;;;;;;;;;;;19.45;46.08;96279.56;6121884;19;1414;-81
2022/10/29 00:21:54;;;;;;;;;;;;;;;19.47;45.68;96284.75;6120005;19;1424;-79
2022/10/29 00:23:58;;;;;;;;;;;;;;;19.47;45.81;96276.75;6120969;19;1497;-80
2022/10/29 00:26:02;;;;;;;;;;;;;;;19.45;45.68;96275.06;6121673;19;1407;-78
2022/10/29 00:28:05;;;;;;;;;;;;;;;19.45;45.61;96272.38;6113221;19;1439;-79
2022/10/29 00:30:09;;;;;;;;;;;;;;;19.47;45.72;96274.06;6109517;19;1865;-79
2022/10/29 00:32:12;;;;;;;;;;;;;;;19.47;46.01;96268.75;6121082;19;1513;-80
2022/10/29 00:34:16;;;;;;;;;;;;;;;19.47;45.65;96271.41;6120942;19;1415;-79
2022/10/29 00:36:20;;;;;;;;;;;;;;;19.45;45.64;96275.06;6120243;19;1435;-80
2022/10/29 00:38:27;;;;;;;;;;;;;;;19.45;46.03;96269.72;6120242;19;1440;-79
2022/10/29 00:40:30;;;;;;;;;;;;;;;19.45;45.82;96275.06;6099680;19;1411;-79
2022/10/29 00:42:33;;;;;;;;;;;;;;;19.46;45.63;96265.22;6121979;19;1514;-80
2022/10/29 00:44:37;;;;;;;;;;;;;;;19.45;45.76;96261.72;6120023;19;1462;-78
2022/10/29 00:46:42;;;;;;;;;;;;;;;19.45;45.77;96261.72;6121896;19;1521;-79
2022/10/29 00:48:47;;;;;;;;;;;;;;;19.44;45.78;96259.25;6118976;19;1065;-80
2022/10/29 00:50:51;;;;;;;;;;;;;;;19.44;45.81;96257.41;6115237;19;1868;-81
2022/10/29 00:52:55;;;;;;;;;;;;;;;19.45;45.74;96259.06;6114726;19;1441;-79
2022/10/29 00:55:02;;;;;;;;;;;;;;;19.44;46.07;96259.25;6127773;19;1522;-80
2022/10/29 00:57:08;;;;;;;;;;;;;;;19.47;46.14;96258.09;6128035;19;1505;-80
2022/10/29 00:59:12;;;;;;;;;;;;;;;19.47;46.08;96258.09;6127364;19;1542;-81
2022/10/29 01:01:16;;;;;;;;;;;;;;;19.47;45.90;96261.56;6126400;19;1483;-81
2022/10/29 01:03:19;;;;;;;;;;;;;;;19.48;45.81;96257.06;6109580;19;1539;-79
2022/10/29 01:05:24;;;;;;;;;;;;;;;19.46;45.97;96251.88;6124425;19;1489;-79
2022/10/29 01:07:28;;;;;;;;;;;;;;;19.47;46.03;96250.09;6126329;19;1498;-78
2022/10/29 01:09:31;;;;;;;;;;;;;;;19.47;46.03;96247.41;6125856;19;957;-79
2022/10/29 01:11:43;;;;;;;;;;;;;;;19.47;45.63;96252.75;6123987;19;1853;-78
2022/10/29 01:13:55;;;;;;;;;;;;;;;19.48;45.61;96246.41;6118551;19;1581;-79
2022/10/29 01:16:02;;;;;;;;;;;;;;;19.47;45.85;96244.75;6117642;19;1517;-85
2022/10/29 01:18:11;;;;;;;;;;;;;;;19.47;45.71;96239.41;6128003;19;1430;-85
2022/10/29 01:20:42;;;;;;;;;;;;;;;19.45;45.60;96243.06;6128237;19;1661;-85
2022/10/29 01:22:50;;;;;;;;;;;;;;;19.46;45.62;96243.91;6126039;19;1534;-85
2022/10/29 01:24:59;;;;;;;;;;;;;;;19.45;46.01;96244.91;6127201;19;1482;-84
2022/10/29 01:27:18;;;;;;;;;;;;;;;19.44;46.20;96238.75;6116368;19;1521;-85
2022/10/29 01:29:28;;;;;;;;;;;;;;;19.46;45.82;96230.56;6128921;19;1432;-85
2022/10/29 01:31:37;;;;;;;;;;;;;;;19.45;46.30;96232.41;6127319;19;1838;-85
2022/10/29 01:33:43;;;;;;;;;;;;;;;19.45;46.24;96227.06;6127622;19;1420;-86
2022/10/29 01:35:51;;;;;;;;;;;;;;;19.45;46.51;96226.25;6128732;19;1419;-87
2022/10/29 01:38:01;;;;;;;;;;;;;;;19.44;46.30;96236.09;6109675;19;1440;-88
2022/10/29 01:40:07;;;;;;;;;;;;;;;19.44;46.71;96224.59;6128083;19;1467;-89
2022/10/29 01:42:14;;;;;;;;;;;;;;;19.45;46.58;96231.59;6129352;19;1528;-88
2022/10/29 01:44:24;;;;;;;;;;;;;;;19.45;46.45;96234.25;6127868;19;1443;-86
2022/10/29 01:46:31;;;;;;;;;;;;;;;19.44;46.65;96230.75;6128233;19;1510;-89
2022/10/29 01:48:39;;;;;;;;;;;;;;;19.43;46.75;96223.78;6113655;19;1513;-83
2022/10/29 01:50:45;;;;;;;;;;;;;;;19.45;46.88;96219.06;6125252;19;1860;-88
2022/10/29 01:52:49;;;;;;;;;;;;;;;19.46;47.01;96219.91;6126056;19;1530;-87
2022/10/29 01:54:52;;;;;;;;;;;;;;;19.46;46.63;96217.22;6127666;19;1479;-87
2022/10/29 01:56:56;;;;;;;;;;;;;;;19.48;47.11;96215.25;6128748;19;1533;-90
2022/10/29 01:59:01;;;;;;;;;;;;;;;19.54;46.92;96221.72;6126834;19;1569;-85
2022/10/29 02:01:08;;;;;;;;;;;;;;;19.56;46.95;96217.06;6105862;19;1476;-82
2022/10/29 02:03:25;;;;;;;;;;;;;;;19.58;47.10;96223.06;6128312;19;1425;-88
2022/10/29 02:05:34;;;;;;;;;;;;;;;19.55;46.72;96226.06;6130799;19;1445;-84
2022/10/29 02:07:43;;;;;;;;;;;;;;;19.53;46.60;96228.09;6128186;19;1514;-87
2022/10/29 02:09:50;;;;;;;;;;;;;;;19.52;46.48;96223.69;6129125;19;1442;-88
2022/10/29 02:11:56;;;;;;;;;;;;;;;19.49;46.69;96219.59;6110969;19;1841;-87
2022/10/29 02:14:03;;;;;;;;;;;;;;;19.48;47.05;96223.22;6127530;19;1389;-88
2022/10/29 02:16:08;;;;;;;;;;;;;;;19.47;47.05;96218.09;6130645;19;1436;-90
2022/10/29 02:18:12;;;;;;;;;;;;;;;19.45;46.64;96211.06;6129883;19;1361;-91
2022/10/29 02:20:16;;;;;;;;;;;;;;;19.47;46.74;96212.75;6129667;19;1515;-88
2022/10/29 02:22:22;;;;;;;;;;;;;;;19.45;47.02;96211.06;6124415;19;1473;-91
2022/10/29 02:24:26;;;;;;;;;;;;;;;19.45;47.07;96216.41;6126607;19;1469;-89
2022/10/29 02:26:29;;;;;;;;;;;;;;;19.45;46.85;96208.41;6127178;19;1532;-87
2022/10/29 02:28:33;;;;;;;;;;;;;;;19.47;47.18;96207.44;6135970;19;1463;-88
2022/10/29 02:30:36;;;;;;;;;;;;;;;19.47;46.88;96208.25;6134700;19;1505;-90
2022/10/29 02:32:40;;;;;;;;;;;;;;;19.47;47.34;96216.25;6126576;19;1850;-88
2022/10/29 02:34:43;;;;;;;;;;;;;;;19.46;46.93;96209.25;6110563;19;1501;-88
2022/10/29 02:36:46;;;;;;;;;;;;;;;19.47;47.16;96213.59;6126467;19;1535;-89
2022/10/29 02:38:52;;;;;;;;;;;;;;;19.47;47.06;96207.44;6129494;19;1521;-87
2022/10/29 02:40:56;;;;;;;;;;;;;;;19.45;47.34;96200.41;6125988;19;1466;-87
2022/10/29 02:42:59;;;;;;;;;;;;;;;19.45;46.84;96205.75;6127222;19;1423;-87
2022/10/29 02:45:02;;;;;;;;;;;;;;;19.45;47.03;96194.25;6115640;19;1577;-86
2022/10/29 02:47:06;;;;;;;;;;;;;;;19.45;47.17;96197.75;6122131;19;1386;-86
2022/10/29 02:49:09;;;;;;;;;;;;;;;19.44;47.10;96203.28;6126956;19;1508;-87
2022/10/29 02:51:13;;;;;;;;;;;;;;;19.44;47.35;96200.59;6126413;19;1841;-87
2022/10/29 02:53:16;;;;;;;;;;;;;;;19.45;47.33;96195.09;6127846;19;1481;-86
2022/10/29 02:55:22;;;;;;;;;;;;;;;19.45;47.29;96200.41;6125956;19;1567;-87
2022/10/29 02:57:26;;;;;;;;;;;;;;;19.46;47.29;96190.56;6108008;19;1512;-87
2022/10/29 02:59:29;;;;;;;;;;;;;;;19.50;47.28;96196.41;6121643;19;1488;-86
2022/10/29 03:01:32;;;;;;;;;;;;;;;19.51;46.99;96206.06;6125788;19;1444;-88
2022/10/29 03:03:36;;;;;;;;;;;;;;;19.53;47.14;96201.44;6127795;19;1510;-87
2022/10/29 03:05:39;;;;;;;;;;;;;;;19.51;46.89;96206.06;6123928;19;1387;-88
2022/10/29 03:07:42;;;;;;;;;;;;;;;19.49;46.86;96192.94;6118793;19;1530;-88
2022/10/29 03:09:46;;;;;;;;;;;;;;;19.50;46.83;96212.41;6117988;19;1176;-87
2022/10/29 03:11:52;;;;;;;;;;;;;;;19.48;47.11;96211.75;6126476;19;1837;-88
2022/10/29 03:13:55;;;;;;;;;;;;;;;19.48;47.01;96214.41;6125250;19;1456;-87
2022/10/29 03:15:59;;;;;;;;;;;;;;;19.48;47.13;96206.41;6122665;19;1112;-90
2022/10/29 03:18:02;;;;;;;;;;;;;;;19.47;46.89;96200.25;6127855;19;1444;-88
2022/10/29 03:20:06;;;;;;;;;;;;;;;19.48;47.00;96199.25;6107396;19;1533;-87
2022/10/29 03:22:09;;;;;;;;;;;;;;;19.48;47.04;96195.75;6129048;19;1621;-87
2022/10/29 03:24:13;;;;;;;;;;;;;;;19.48;47.13;96198.41;6127092;19;1529;-87
2022/10/29 03:26:16;;;;;;;;;;;;;;;19.48;46.78;96199.25;6124185;19;1432;-86
2022/10/29 03:28:23;;;;;;;;;;;;;;;19.46;46.83;96195.91;6125535;19;1455;-88
2022/10/29 03:30:26;;;;;;;;;;;;;;;19.46;47.09;96193.25;6117330;19;1515;-86
2022/10/29 03:32:29;;;;;;;;;;;;;;;19.45;46.91;96188.94;6116394;19;1837;-87
2022/10/29 03:34:33;;;;;;;;;;;;;;;19.44;47.07;96193.44;6123521;19;1431;-85
2022/10/29 03:36:36;;;;;;;;;;;;;;;19.45;46.88;96189.75;6123829;19;1531;-88
2022/10/29 03:38:40;;;;;;;;;;;;;;;19.43;47.15;96202.44;6125620;19;1367;-88
2022/10/29 03:40:44;;;;;;;;;;;;;;;19.44;47.06;96188.09;6125979;19;1523;-88
2022/10/29 03:42:48;;;;;;;;;;;;;;;19.44;47.17;96185.44;6106415;19;1598;-87
2022/10/29 03:44:54;;;;;;;;;;;;;;;19.46;47.27;96174.59;6124042;19;1554;-87
2022/10/29 03:46:57;;;;;;;;;;;;;;;19.48;46.79;96182.41;6126169;19;1435;-87
2022/10/29 03:49:00;;;;;;;;;;;;;;;19.47;46.94;96184.25;6127222;19;1502;-87
2022/10/29 03:51:05;;;;;;;;;;;;;;;19.46;46.98;96174.59;6124954;19;1535;-87
2022/10/29 03:53:08;;;;;;;;;;;;;;;19.47;47.16;96178.09;6115215;19;1822;-87
2022/10/29 03:55:11;;;;;;;;;;;;;;;19.48;46.89;96177.09;6114787;19;1511;-87
2022/10/29 03:57:15;;;;;;;;;;;;;;;19.45;46.79;96173.75;6122492;19;1515;-89
2022/10/29 03:59:18;;;;;;;;;;;;;;;19.52;46.93;96183.72;6124059;19;1514;-88
2022/10/29 04:01:24;;;;;;;;;;;;;;;19.56;46.77;96179.75;6124264;19;1435;-87
2022/10/29 04:03:28;;;;;;;;;;;;;;;19.53;46.85;96180.91;6123274;19;1526;-90
2022/10/29 04:05:31;;;;;;;;;;;;;;;19.45;46.97;96181.75;6106563;19;1525;-84
2022/10/29 04:07:35;;;;;;;;;;;;;;;19.45;47.27;96173.75;6123037;19;1411;-82
2022/10/29 04:09:38;;;;;;;;;;;;;;;19.52;46.80;96183.72;6127091;19;1509;-85
2022/10/29 04:11:41;;;;;;;;;;;;;;;19.52;47.09;96189.03;6122714;19;1853;-85
2022/10/29 04:13:45;;;;;;;;;;;;;;;19.52;47.21;96189.91;6126189;19;1464;-88
2022/10/29 04:15:48;;;;;;;;;;;;;;;19.53;46.94;96190.75;6121564;19;1551;-84
2022/10/29 04:17:54;;;;;;;;;;;;;;;19.52;47.18;96195.22;6106233;19;1443;-86
2022/10/29 04:19:57;;;;;;;;;;;;;;;19.54;47.25;96193.22;6124965;19;1511;-85
2022/10/29 04:22:01;;;;;;;;;;;;;;;19.54;47.28;96203.06;6124263;19;1605;-86
2022/10/29 04:24:04;;;;;;;;;;;;;;;19.52;46.89;96203.22;6123444;19;1502;-85
2022/10/29 04:26:07;;;;;;;;;;;;;;;19.52;46.90;96202.38;6125855;19;1501;-87
2022/10/29 04:28:11;;;;;;;;;;;;;;;19.52;47.15;96211.22;6106717;19;1464;-85
2022/10/29 04:30:14;;;;;;;;;;;;;;;19.52;46.81;96215.72;6120253;19;1509;-87
2022/10/29 04:32:18;;;;;;;;;;;;;;;19.52;47.15;96215.72;6122621;19;1842;-86
2022/10/29 04:34:24;;;;;;;;;;;;;;;19.51;46.93;96211.38;6125961;19;1427;-87
2022/10/29 04:36:30;;;;;;;;;;;;;;;19.50;47.05;96215.91;6124788;19;1516;-91
2022/10/29 04:38:33;;;;;;;;;;;;;;;19.49;46.67;96216.91;6124098;19;1508;-86
2022/10/29 04:40:37;;;;;;;;;;;;;;;19.51;47.02;96214.06;6102495;19;1516;-84
2022/10/29 04:42:41;;;;;;;;;;;;;;;19.51;47.12;96212.22;6123640;19;1435;-86
2022/10/29 04:44:44;;;;;;;;;;;;;;;19.52;46.92;96210.38;6123059;19;1553;-83
2022/10/29 04:46:47;;;;;;;;;;;;;;;19.53;46.61;96217.41;6124369;19;1527;-89
2022/10/29 04:48:51;;;;;;;;;;;;;;;19.50;46.82;96213.22;6119278;19;1494;-89
2022/10/29 04:50:57;;;;;;;;;;;;;;;19.53;46.59;96217.41;6111025;19;1457;-88
2022/10/29 04:53:01;;;;;;;;;;;;;;;19.52;46.84;96216.56;6122615;19;1950;-88
2022/10/29 04:55:04;;;;;;;;;;;;;;;19.50;47.09;96218.56;6120780;19;1513;-86
2022/10/29 04:57:07;;;;;;;;;;;;;;;19.49;47.13;96213.41;6121761;19;1212;-90
2022/10/29 04:59:11;;;;;;;;;;;;;;;19.50;47.10;96210.56;6117396;19;1458;-87
2022/10/29 05:01:14;;;;;;;;;;;;;;;19.51;46.81;96214.06;6118452;19;1524;-83
2022/10/29 05:03:17;;;;;;;;;;;;;;;19.52;46.72;96211.22;6104843;19;1465;-83
2022/10/29 05:05:22;;;;;;;;;;;;;;;19.52;46.52;96215.72;6120629;19;1510;-86
2022/10/29 05:07:27;;;;;;;;;;;;;;;18.67;41.26;96213.75;6119720;19;1443;-82
2022/10/29 05:09:31;;;;;;;;;;;;;;;18.19;40.16;96215.44;6119415;19;1380;-82
2022/10/29 05:11:34;;;;;;;;;;;;;;;17.98;38.92;96218.59;6116798;19;1564;-82
2022/10/29 05:13:38;;;;;;;;;;;;;;;17.87;38.59;96214.47;6112611;19;1853;-83
2022/10/29 05:15:41;;;;;;;;;;;;;;;17.74;37.94;96214.94;6111258;19;1065;-84
2022/10/29 05:17:44;;;;;;;;;;;;;;;17.63;37.22;96226.66;6120275;19;1506;-85
2022/10/29 05:19:48;;;;;;;;;;;;;;;17.58;36.97;96215.69;6118128;19;1577;-83
2022/10/29 05:21:51;;;;;;;;;;;;;;;17.51;36.56;96224.50;6123355;19;1503;-82
2022/10/29 05:23:57;;;;;;;;;;;;;;;17.47;36.49;96216.03;6121071;19;1433;-82
2022/10/29 05:26:00;;;;;;;;;;;;;;;17.37;36.18;96220.63;6103319;19;1190;-83
2022/10/29 05:28:04;;;;;;;;;;;;;;;17.34;36.48;96218.31;6117503;19;1436;-84
2022/10/29 05:30:09;;;;;;;;;;;;;;;17.61;37.41;96218.03;6119689;19;1549;-84
2022/10/29 05:32:12;;;;;;;;;;;;;;;17.72;37.64;96218.72;6121732;19;1857;-84
2022/10/29 05:34:16;;;;;;;;;;;;;;;17.85;38.16;96219.09;6119660;19;1498;-82
2022/10/29 05:36:19;;;;;;;;;;;;;;;17.85;38.28;96222.59;6114815;19;1451;-86
2022/10/29 05:38:22;;;;;;;;;;;;;;;17.80;37.49;96218.75;6116551;19;1514;-82
2022/10/29 05:40:29;;;;;;;;;;;;;;;18.00;38.68;96225.41;6124223;19;1383;-85
2022/10/29 05:42:32;;;;;;;;;;;;;;;17.75;37.67;96223.72;6126668;19;1158;-76
2022/10/29 05:44:35;;;;;;;;;;;;;;;17.55;38.81;96236.44;6126426;19;1284;-82
2022/10/29 05:46:39;;;;;;;;;;;;;;;17.68;38.25;96239.47;6120902;19;1526;-79
2022/10/29 05:48:43;;;;;;;;;;;;;;;17.84;38.14;96231.56;6105874;19;1529;-82
2022/10/29 05:50:47;;;;;;;;;;;;;;;17.87;38.42;96236.56;6123968;19;1553;-82
2022/10/29 05:52:56;;;;;;;;;;;;;;;17.93;38.33;96229.75;6127455;19;1849;-82
2022/10/29 05:54:59;;;;;;;;;;;;;;;17.96;38.28;96229.41;6124753;19;1407;-82
2022/10/29 05:59:11;;;;;;;;;;;;;;;18.15;38.08;96243.38;6106128;19;1659;-71
2022/10/29 06:01:15;;;;;;;;;;;;;;;18.05;38.06;96233.72;6109600;19;1040;-68
2022/10/29 06:03:19;;;;;;;;;;;;;;;17.93;38.40;96237.72;6118921;19;1824;-69
2022/10/29 06:05:23;;;;;;;;;;;;;;;17.84;38.27;96239.53;6118964;19;1661;-68
2022/10/29 06:07:26;;;;;;;;;;;;;;;17.83;38.86;96242.34;6125730;19;1317;-68
2022/10/29 06:09:29;;;;;;;;;;;;;;;17.88;38.85;96240.03;6123719;19;1693;-69
2022/10/29 06:11:33;;;;;;;;;;;;;;;17.97;38.64;96243.53;6106900;19;1639;-69
2022/10/29 06:13:36;;;;;;;;;;;;;;;17.93;38.38;96247.53;6125040;19;1865;-68
2022/10/29 06:15:42;;;;;;;;;;;;;;;17.79;38.96;96255.16;6126703;19;1873;-69
2022/10/29 06:17:46;;;;;;;;;;;;;;;17.96;38.26;96250.69;6122450;19;1505;-70
2022/10/29 06:19:49;;;;;;;;;;;;;;;17.93;38.51;96252.84;6124928;19;1486;-73
2022/10/29 06:21:53;;;;;;;;;;;;;;;17.95;38.36;96243.69;6119162;19;1499;-72
2022/10/29 06:23:58;;;;;;;;;;;;;;;17.96;38.63;96249.84;6112228;19;1397;-69
2022/10/29 06:26:02;;;;;;;;;;;;;;;17.83;38.63;96250.31;6119073;19;1552;-70
2022/10/29 06:28:06;;;;;;;;;;;;;;;18.04;38.55;96255.16;6123594;19;1431;-70
2022/10/29 06:30:11;;;;;;;;;;;;;;;18.13;38.67;96251.53;6124389;19;1418;-70
2022/10/29 06:32:20;;;;;;;;;;;;;;;18.18;38.49;96253.66;6122677;19;1534;-72
2022/10/29 06:34:24;;;;;;;;;;;;;;;18.24;38.26;96250.34;6102741;19;1947;-69
2022/10/29 06:36:28;;;;;;;;;;;;;;;18.34;38.82;96243.03;6125253;19;1498;-68
2022/10/29 06:38:31;;;;;;;;;;;;;;;18.43;38.79;96251.84;6124186;19;1459;-75
2022/10/29 06:40:38;;;;;;;;;;;;;;;18.46;37.90;96241.69;6123700;19;1612;-74
2022/10/29 06:42:42;;;;;;;;;;;;;;;18.35;37.79;96239.38;6122191;19;1507;-69
2022/10/29 06:44:45;;;;;;;;;;;;;;;18.39;37.99;96234.56;6114534;19;1372;-75
2022/10/29 06:46:48;;;;;;;;;;;;;;;18.28;37.75;96233.88;6113370;19;1033;-75
2022/10/29 06:48:54;;;;;;;;;;;;;;;18.24;38.00;96243.22;6121203;19;1024;-74
2022/10/29 06:50:59;;;;;;;;;;;;;;;18.16;37.93;96245.88;6121663;19;1390;-76
2022/10/29 06:53:03;;;;;;;;;;;;;;;18.06;38.27;96243.34;6120043;19;1860;-74
2022/10/29 06:55:07;;;;;;;;;;;;;;;17.66;38.55;96244.94;6119244;19;1289;-69
2022/10/29 06:57:11;;;;;;;;;;;;;;;17.58;38.63;96247.59;6103214;19;1127;-69
2022/10/29 06:59:14;;;;;;;;;;;;;;;17.92;38.62;96243.19;6117698;19;1107;-71
2022/10/29 07:01:17;;;;;;;;;;;;;;;18.08;38.41;96240.56;6119661;19;1080;-69
2022/10/29 07:03:22;;;;;;;;;;;;;;;18.18;38.17;96245.69;6119176;19;1045;-69
2022/10/29 07:05:28;;;;;;;;;;;;;;;18.16;38.22;96245.06;6120843;19;1045;-69
2022/10/29 07:07:32;;;;;;;;;;;;;;;18.03;38.55;96243.69;6107675;19;1545;-67
2022/10/29 07:09:35;;;;;;;;;;;;;;;17.61;38.97;96244.63;6106178;19;1156;-66
2022/10/29 07:11:39;;;;;;;;;;;;;;;17.42;39.10;96250.22;6118184;19;1549;-67
2022/10/29 07:13:43;;;;;;;;;;;;;;;17.26;39.11;96252.81;6116179;19;1846;-66
2022/10/29 07:15:48;;;;;;;;;;;;;;;17.31;39.70;96240.72;6119085;19;963;-71
2022/10/29 07:17:59;;;;;;;;;;;;;;;17.38;39.32;96256.84;6118256;19;1430;-71
2022/10/29 07:20:02;;;;;;;;;;;;;;;17.40;39.08;96261.00;6102531;19;1054;-71
2022/10/29 07:22:08;;;;;;;;;;;;;;;17.74;38.68;96261.94;6121643;19;1033;-71
2022/10/29 07:24:11;;;;;;;;;;;;;;;17.97;38.95;96252.34;6121754;19;1017;-70
2022/10/29 07:26:15;;;;;;;;;;;;;;;18.06;38.63;96259.31;6121932;19;1076;-70
2022/10/29 07:28:19;;;;;;;;;;;;;;;18.10;38.44;96262.50;6120738;19;1053;-70
2022/10/29 07:30:23;;;;;;;;;;;;;;;18.14;38.82;96268.31;6114176;19;1000;-71
2022/10/29 07:32:26;;;;;;;;;;;;;;;18.17;38.43;96266.16;6111160;19;1490;-71
2022/10/29 07:34:33;;;;;;;;;;;;;;;18.17;38.44;96270.66;6119883;19;1838;-71
2022/10/29 07:36:37;;;;;;;;;;;;;;;18.15;38.25;96268.13;6121763;19;978;-70
2022/10/29 07:38:43;;;;;;;;;;;;;;;18.18;38.55;96265.16;6121310;19;1094;-70
2022/10/29 07:40:49;;;;;;;;;;;;;;;18.17;38.53;96254.69;6121851;19;989;-70
2022/10/29 07:42:53;;;;;;;;;;;;;;;18.16;38.41;96255.69;6102907;19;1462;-71
2022/10/29 07:44:57;;;;;;;;;;;;;;;18.19;38.66;96256.19;6120508;19;1437;-68
2022/10/29 07:47:01;;;;;;;;;;;;;;;18.23;38.83;96254.84;6120312;19;1061;-70
2022/10/29 07:49:05;;;;;;;;;;;;;;;18.22;38.71;96255.03;6120639;19;1080;-71
2022/10/29 07:51:08;;;;;;;;;;;;;;;18.32;38.80;96251.19;6119465;19;1515;-71
2022/10/29 07:53:12;;;;;;;;;;;;;;;18.35;38.72;96247.34;6111578;19;1852;-70
2022/10/29 07:55:18;;;;;;;;;;;;;;;18.20;38.58;96249.03;6109564;19;1306;-70
2022/10/29 07:57:25;;;;;;;;;;;;;;;17.86;38.61;96240.19;6120856;19;1032;-77
2022/10/29 07:59:28;;;;;;;;;;;;;;;17.63;39.25;96244.44;6117610;19;1103;-73
2022/10/29 08:01:32;;;;;;;;;;;;;;;17.54;39.09;96248.91;6120935;19;1429;-68
2022/10/29 08:03:36;;;;;;;;;;;;;;;17.54;39.61;96248.91;6118790;19;1467;-74
2022/10/29 08:05:41;;;;;;;;;;;;;;;17.54;39.39;96251.56;6100998;19;1016;-67
2022/10/29 08:07:44;;;;;;;;;;;;;;;17.56;39.14;96244.28;6119348;19;1316;-77
2022/10/29 08:10:04;;;;;;;;;;;;;;;17.53;39.49;96247.25;6119680;19;1072;-72
2022/10/29 08:12:16;;;;;;;;;;;;;;;17.47;39.51;96245.25;6120124;19;920;-73
2022/10/29 08:14:20;;;;;;;;;;;;;;;17.79;38.75;96241.03;6119394;19;1837;-74
2022/10/29 08:16:23;;;;;;;;;;;;;;;17.84;39.09;96230.72;6101910;19;1077;-76
2022/10/29 08:18:26;;;;;;;;;;;;;;;18.07;39.23;96225.59;6119020;19;1397;-75
2022/10/29 08:20:31;;;;;;;;;;;;;;;17.74;39.20;96230.06;6118655;19;1561;-73
2022/10/29 08:22:34;;;;;;;;;;;;;;;17.89;39.51;96233.72;6120772;19;1069;-72
2022/10/29 08:24:37;;;;;;;;;;;;;;;18.20;39.10;96233.06;6118441;19;1068;-72
2022/10/29 08:26:41;;;;;;;;;;;;;;;18.33;39.45;96223.59;6119143;19;1045;-73
2022/10/29 08:28:47;;;;;;;;;;;;;;;18.44;39.27;96227.72;6099838;19;1022;-73
2022/10/29 08:30:52;;;;;;;;;;;;;;;18.50;39.08;96226.22;6119400;19;1049;-74
2022/10/29 08:32:56;;;;;;;;;;;;;;;18.55;39.36;96229.19;6118803;19;1018;-73
2022/10/29 08:34:59;;;;;;;;;;;;;;;18.61;39.48;96217.03;6117567;19;1842;-73
2022/10/29 08:37:03;;;;;;;;;;;;;;;18.64;39.13;96217.56;6119266;19;1072;-73
2022/10/29 08:39:06;;;;;;;;;;;;;;;18.66;39.46;96217.41;6098998;19;1064;-73
2022/10/29 08:41:17;;;;;;;;;;;;;;;18.70;39.46;96216.06;6118382;19;1040;-73
2022/10/29 08:43:27;;;;;;;;;;;;;;;18.72;39.01;96214.03;6117547;19;1451;-73
2022/10/29 08:45:37;;;;;;;;;;;;;;;18.74;39.43;96212.06;6116911;19;1458;-73
2022/10/29 08:47:48;;;;;;;;;;;;;;;18.76;39.18;96204.72;6116947;19;1391;-73
2022/10/29 08:49:58;;;;;;;;;;;;;;;18.79;39.33;96203.56;6107997;19;1029;-73
2022/10/29 08:52:06;;;;;;;;;;;;;;;18.81;39.63;96202.41;6107989;19;984;-73
2022/10/29 08:54:13;;;;;;;;;;;;;;;18.83;39.53;96203.03;6116335;19;1841;-73
2022/10/29 08:56:18;;;;;;;;;;;;;;;18.84;39.63;96201.22;6119027;19;1032;-72
2022/10/29 08:58:25;;;;;;;;;;;;;;;18.87;39.66;96198.22;6117401;19;1050;-73
2022/10/29 09:00:32;;;;;;;;;;;;;;;18.88;39.24;96192.69;6118434;19;1777;-74
2022/10/29 09:02:39;;;;;;;;;;;;;;;18.89;39.27;96194.34;6103494;19;1555;-75
2022/10/29 09:04:42;;;;;;;;;;;;;;;18.90;39.24;96193.38;6119577;19;1048;-74
2022/10/29 09:06:49;;;;;;;;;;;;;;;18.90;39.00;96189.88;6121182;19;1621;-75
2022/10/29 09:08:59;;;;;;;;;;;;;;;18.91;39.62;96197.69;6118228;19;1400;-72
2022/10/29 09:11:09;;;;;;;;;;;;;;;18.94;39.46;96192.00;6120883;19;1496;-74
2022/10/29 09:13:33;;;;;;;;;;;;;;;18.96;39.43;96192.66;6101431;19;1574;-74
2022/10/29 09:15:53;;;;;;;;;;;;;;;18.98;39.26;96192.50;6120939;19;1696;-74
2022/10/29 09:18:04;;;;;;;;;;;;;;;18.98;39.23;96187.19;6125423;19;1673;-74
2022/10/29 09:20:19;;;;;;;;;;;;;;;19.01;39.10;96186.84;6126106;19;1712;-74
2022/10/29 09:22:24;;;;;;;;;;;;;;;19.02;39.46;96179.66;6123187;19;1815;-73
2022/10/29 09:24:35;;;;;;;;;;;;;;;19.05;39.30;96188.13;6097085;19;3407;-74
2022/10/29 09:26:44;;;;;;;;;;;;;;;19.07;39.47;96186.13;6122526;19;2419;-70
2022/10/29 09:28:56;;;;;;;;;;;;;;;19.07;39.30;96178.16;6122468;19;2051;-70
2022/10/29 09:33:13;;;;;;;;;;;;;;;19.11;38.99;96181.28;6122201;19;1721;-71
2022/10/29 09:35:18;;;;;;;;;;;;;;;19.13;39.38;96171.28;6115686;19;2133;-71
2022/10/29 09:37:23;;;;;;;;;;;;;;;19.11;39.47;96167.97;6114640;19;1560;-69
2022/10/29 09:39:29;;;;;;;;;;;;;;;19.15;39.29;96166.59;6124192;19;1013;-68
2022/10/29 09:41:34;;;;;;;;;;;;;;;19.16;39.94;96165.63;6126025;19;1581;-70
2022/10/29 09:43:40;;;;;;;;;;;;;;;19.20;40.19;96164.25;6126339;19;2064;-69
2022/10/29 09:45:47;;;;;;;;;;;;;;;19.21;40.93;96166.75;6123270;19;1017;-70
2022/10/29 09:47:57;;;;;;;;;;;;;;;19.26;41.74;96157.38;6100383;19;1848;-70
2022/10/29 09:50:08;;;;;;;;;;;;;;;19.29;41.62;96152.56;6120523;19;1594;-71
2022/10/29 09:52:17;;;;;;;;;;;;;;;19.31;41.31;96147.88;6121879;19;1730;-72
2022/10/29 09:54:21;;;;;;;;;;;;;;;19.34;41.18;96150.19;6121570;19;1853;-72
2022/10/29 09:56:24;;;;;;;;;;;;;;;19.35;41.61;96140.34;6121476;19;1041;-72
2022/10/29 09:58:28;;;;;;;;;;;;;;;19.34;41.35;96141.34;6110417;19;1662;-71
2022/10/29 10:00:41;;;;;;;;;;;;;;;19.36;41.25;96144.69;6109915;19;1444;-72
2022/10/29 10:02:46;;;;;;;;;;;;;;;19.35;41.17;96135.88;6123715;19;2048;-72
2022/10/29 10:04:50;;;;;;;;;;;;;;;19.36;41.16;96137.50;6123315;19;1041;-70
2022/10/29 10:07:12;;;;;;;;;;;;;;;19.19;38.92;96130.63;6124130;19;1429;-73
2022/10/29 10:09:18;;;;;;;;;;;;;;;18.91;38.24;96125.78;6125251;19;1028;-73
2022/10/29 10:11:21;;;;;;;;;;;;;;;18.64;37.43;96121.72;6108194;19;1514;-73
2022/10/29 10:13:25;;;;;;;;;;;;;;;18.70;38.61;96114.91;6124131;19;1549;-74
2022/10/29 10:15:30;;;;;;;;;;;;;;;18.75;39.18;96118.69;6121549;19;1893;-75
2022/10/29 10:17:48;;;;;;;;;;;;;;;18.79;39.20;96113.84;6121120;19;1401;-74
2022/10/29 10:19:54;;;;;;;;;;;;;;;18.83;39.36;96109.00;6124029;19;1216;-73
2022/10/29 10:22:00;;;;;;;;;;;;;;;18.81;38.95;96101.22;6107430;19;1434;-75
2022/10/29 10:24:04;;;;;;;;;;;;;;;18.74;38.39;96101.06;6122473;19;1404;-75
2022/10/29 10:26:28;;;;;;;;;;;;;;;18.73;38.89;96091.41;6123222;19;1179;-74
2022/10/29 10:28:33;;;;;;;;;;;;;;;18.74;38.99;96089.56;6124331;19;1488;-74
2022/10/29 10:30:42;;;;;;;;;;;;;;;18.77;38.90;96084.72;6123165;19;1115;-73
2022/10/29 10:32:45;;;;;;;;;;;;;;;18.73;38.82;96083.44;6117538;19;1330;-74
2022/10/29 10:34:50;;;;;;;;;;;;;;;18.73;38.95;96077.28;6113082;19;1861;-74
2022/10/29 10:36:55;;;;;;;;;;;;;;;18.73;38.93;96077.28;6122955;19;1060;-75
2022/10/29 10:39:00;;;;;;;;;;;;;;;18.75;39.26;96065.44;6122784;19;1021;-74
2022/10/29 10:41:08;;;;;;;;;;;;;;;18.76;39.31;96061.78;6125417;19;1406;-74
2022/10/29 10:43:20;;;;;;;;;;;;;;;18.74;38.54;96073.59;6126678;19;1420;-71
2022/10/29 10:45:29;;;;;;;;;;;;;;;18.82;39.23;96059.41;6094252;19;1701;-70
2022/10/29 10:47:34;;;;;;;;;;;;;;;18.88;39.27;96054.22;6121329;19;1759;-71
2022/10/29 10:49:38;;;;;;;;;;;;;;;18.93;39.14;96051.88;6121407;19;1038;-71
2022/10/29 10:51:46;;;;;;;;;;;;;;;18.97;39.23;96047.00;6123488;19;2088;-70
2022/10/29 10:53:49;;;;;;;;;;;;;;;18.98;39.36;96046.84;6118312;19;1694;-70
2022/10/29 10:55:56;;;;;;;;;;;;;;;18.99;39.67;96045.00;6111666;19;1846;-71
2022/10/29 10:58:04;;;;;;;;;;;;;;;19.00;40.01;96044.81;6107956;19;1507;-71
2022/10/29 11:00:15;;;;;;;;;;;;;;;19.02;40.00;96043.81;6121920;19;1834;-69
2022/10/29 11:02:23;;;;;;;;;;;;;;;19.03;40.13;96035.63;6120654;19;1840;-69
2022/10/29 11:04:29;;;;;;;;;;;;;;;19.08;39.88;96035.13;6121852;19;2017;-71
2022/10/29 11:06:34;;;;;;;;;;;;;;;19.10;40.07;96031.28;6120216;19;1005;-71